sensor_id;sensor_type;location;lat;lon;timestamp;P1;durP1;ratioP1;P2;durP2;ratioP2
74799;SDS011;63326;45.088;7.658;2023-04-03T00:01:04;1.73;;;0.65;;
74799;SDS011;63326;45.088;7.658;2023-04-03T00:03:31;0.88;;;0.55;;
74799;SDS011;63326;45.088;7.658;2023-04-03T00:05:58;1.70;;;0.52;;
74799;SDS011;63326;45.088;7.658;2023-04-03T00:08:24;1.35;;;0.65;;
74799;SDS011;63326;45.088;7.658;2023-04-03T00:10:51;2.03;;;0.68;;
74799;SDS011;63326;45.088;7.658;2023-04-03T00:13:18;1.90;;;1.00;;
74799;SDS011;63326;45.088;7.658;2023-04-03T00:15:44;1.90;;;1.00;;
74799;SDS011;63326;45.088;7.658;2023-04-03T00:18:11;1.63;;;0.90;;
74799;SDS011;63326;45.088;7.658;2023-04-03T00:20:38;1.75;;;1.13;;
74799;SDS011;63326;45.088;7.658;2023-04-03T00:23:05;2.30;;;0.80;;
74799;SDS011;63326;45.088;7.658;2023-04-03T00:25:31;1.50;;;0.75;;
74799;SDS011;63326;45.088;7.658;2023-04-03T00:27:58;2.35;;;0.98;;
74799;SDS011;63326;45.088;7.658;2023-04-03T00:30:25;1.77;;;0.80;;
74799;SDS011;63326;45.088;7.658;2023-04-03T00:32:52;1.88;;;1.00;;
74799;SDS011;63326;45.088;7.658;2023-04-03T00:35:19;1.70;;;0.90;;
74799;SDS011;63326;45.088;7.658;2023-04-03T00:37:47;1.65;;;0.70;;
74799;SDS011;63326;45.088;7.658;2023-04-03T00:40:17;4.70;;;0.80;;
74799;SDS011;63326;45.088;7.658;2023-04-03T00:42:44;2.08;;;1.00;;
74799;SDS011;63326;45.088;7.658;2023-04-03T00:45:30;2.17;;;1.05;;
74799;SDS011;63326;45.088;7.658;2023-04-03T00:48:10;1.90;;;0.63;;
74799;SDS011;63326;45.088;7.658;2023-04-03T00:50:40;2.30;;;0.98;;
74799;SDS011;63326;45.088;7.658;2023-04-03T00:53:10;1.98;;;0.95;;
74799;SDS011;63326;45.088;7.658;2023-04-03T00:55:40;1.67;;;0.80;;
74799;SDS011;63326;45.088;7.658;2023-04-03T00:58:08;1.35;;;0.85;;
74799;SDS011;63326;45.088;7.658;2023-04-03T01:00:36;1.95;;;0.82;;
74799;SDS011;63326;45.088;7.658;2023-04-03T01:03:07;1.98;;;0.82;;
74799;SDS011;63326;45.088;7.658;2023-04-03T01:05:36;2.63;;;1.05;;
74799;SDS011;63326;45.088;7.658;2023-04-03T01:08:04;1.90;;;0.82;;
74799;SDS011;63326;45.088;7.658;2023-04-03T01:10:35;2.58;;;1.42;;
74799;SDS011;63326;45.088;7.658;2023-04-03T01:13:02;1.17;;;0.75;;
74799;SDS011;63326;45.088;7.658;2023-04-03T01:15:49;3.40;;;1.10;;
74799;SDS011;63326;45.088;7.658;2023-04-03T01:18:16;2.58;;;1.25;;
74799;SDS011;63326;45.088;7.658;2023-04-03T01:26:05;1.50;;;0.73;;
74799;SDS011;63326;45.088;7.658;2023-04-03T01:28:33;1.00;;;0.60;;
74799;SDS011;63326;45.088;7.658;2023-04-03T01:33:58;0.88;;;0.60;;
74799;SDS011;63326;45.088;7.658;2023-04-03T01:36:28;2.15;;;0.95;;
74799;SDS011;63326;45.088;7.658;2023-04-03T01:38:58;1.83;;;1.02;;
74799;SDS011;63326;45.088;7.658;2023-04-03T01:41:26;2.92;;;0.90;;
74799;SDS011;63326;45.088;7.658;2023-04-03T01:44:00;3.53;;;1.73;;
74799;SDS011;63326;45.088;7.658;2023-04-03T01:46:27;1.77;;;0.93;;
74799;SDS011;63326;45.088;7.658;2023-04-03T01:48:53;2.75;;;1.30;;
74799;SDS011;63326;45.088;7.658;2023-04-03T01:51:20;2.28;;;1.17;;
74799;SDS011;63326;45.088;7.658;2023-04-03T01:53:47;3.72;;;0.90;;
74799;SDS011;63326;45.088;7.658;2023-04-03T01:56:13;3.35;;;1.30;;
74799;SDS011;63326;45.088;7.658;2023-04-03T01:58:40;1.63;;;0.90;;
74799;SDS011;63326;45.088;7.658;2023-04-03T02:01:07;3.63;;;1.40;;
74799;SDS011;63326;45.088;7.658;2023-04-03T02:03:34;2.72;;;1.00;;
74799;SDS011;63326;45.088;7.658;2023-04-03T02:06:01;3.17;;;0.90;;
74799;SDS011;63326;45.088;7.658;2023-04-03T02:08:27;2.80;;;1.00;;
74799;SDS011;63326;45.088;7.658;2023-04-03T02:10:54;2.00;;;1.05;;
74799;SDS011;63326;45.088;7.658;2023-04-03T02:13:21;2.35;;;0.82;;
74799;SDS011;63326;45.088;7.658;2023-04-03T02:15:48;1.67;;;0.80;;
74799;SDS011;63326;45.088;7.658;2023-04-03T02:18:16;4.18;;;1.10;;
74799;SDS011;63326;45.088;7.658;2023-04-03T02:20:42;4.90;;;0.95;;
74799;SDS011;63326;45.088;7.658;2023-04-03T02:23:10;2.05;;;1.17;;
74799;SDS011;63326;45.088;7.658;2023-04-03T02:25:36;5.53;;;1.05;;
74799;SDS011;63326;45.088;7.658;2023-04-03T02:28:04;2.97;;;1.35;;
74799;SDS011;63326;45.088;7.658;2023-04-03T02:30:31;1.67;;;0.52;;
74799;SDS011;63326;45.088;7.658;2023-04-03T02:32:58;1.20;;;0.73;;
74799;SDS011;63326;45.088;7.658;2023-04-03T02:35:25;2.83;;;1.00;;
74799;SDS011;63326;45.088;7.658;2023-04-03T02:37:55;1.75;;;0.88;;
74799;SDS011;63326;45.088;7.658;2023-04-03T02:40:22;1.92;;;1.08;;
74799;SDS011;63326;45.088;7.658;2023-04-03T02:42:49;4.03;;;1.02;;
74799;SDS011;63326;45.088;7.658;2023-04-03T02:45:17;1.25;;;0.52;;
74799;SDS011;63326;45.088;7.658;2023-04-03T02:47:44;2.33;;;1.48;;
74799;SDS011;63326;45.088;7.658;2023-04-03T02:50:11;1.52;;;0.80;;
74799;SDS011;63326;45.088;7.658;2023-04-03T02:52:37;3.47;;;1.00;;
74799;SDS011;63326;45.088;7.658;2023-04-03T02:55:05;1.73;;;0.95;;
74799;SDS011;63326;45.088;7.658;2023-04-03T02:57:32;3.92;;;1.13;;
74799;SDS011;63326;45.088;7.658;2023-04-03T02:59:58;1.17;;;0.80;;
74799;SDS011;63326;45.088;7.658;2023-04-03T03:02:25;4.38;;;1.00;;
74799;SDS011;63326;45.088;7.658;2023-04-03T03:04:52;3.47;;;1.33;;
74799;SDS011;63326;45.088;7.658;2023-04-03T03:07:19;1.83;;;1.00;;
74799;SDS011;63326;45.088;7.658;2023-04-03T03:09:46;1.25;;;0.88;;
74799;SDS011;63326;45.088;7.658;2023-04-03T03:12:12;2.10;;;1.23;;
74799;SDS011;63326;45.088;7.658;2023-04-03T03:14:39;1.77;;;0.80;;
74799;SDS011;63326;45.088;7.658;2023-04-03T03:17:07;1.63;;;0.90;;
74799;SDS011;63326;45.088;7.658;2023-04-03T03:19:34;2.30;;;1.02;;
74799;SDS011;63326;45.088;7.658;2023-04-03T03:22:00;2.10;;;1.23;;
74799;SDS011;63326;45.088;7.658;2023-04-03T03:24:27;1.65;;;0.65;;
74799;SDS011;63326;45.088;7.658;2023-04-03T03:26:54;1.40;;;0.80;;
74799;SDS011;63326;45.088;7.658;2023-04-03T03:29:21;1.50;;;0.63;;
74799;SDS011;63326;45.088;7.658;2023-04-03T03:31:47;1.58;;;0.90;;
74799;SDS011;63326;45.088;7.658;2023-04-03T03:34:14;1.38;;;0.65;;
74799;SDS011;63326;45.088;7.658;2023-04-03T03:36:41;1.77;;;1.00;;
74799;SDS011;63326;45.088;7.658;2023-04-03T03:39:07;2.50;;;1.42;;
74799;SDS011;63326;45.088;7.658;2023-04-03T03:41:34;1.98;;;0.88;;
74799;SDS011;63326;45.088;7.658;2023-04-03T03:44:02;1.40;;;0.73;;
74799;SDS011;63326;45.088;7.658;2023-04-03T03:46:30;2.28;;;1.08;;
74799;SDS011;63326;45.088;7.658;2023-04-03T03:48:57;1.05;;;0.73;;
74799;SDS011;63326;45.088;7.658;2023-04-03T03:51:24;1.60;;;0.77;;
74799;SDS011;63326;45.088;7.658;2023-04-03T03:53:51;1.10;;;0.50;;
74799;SDS011;63326;45.088;7.658;2023-04-03T03:56:19;1.27;;;0.70;;
74799;SDS011;63326;45.088;7.658;2023-04-03T03:58:46;2.10;;;0.70;;
74799;SDS011;63326;45.088;7.658;2023-04-03T04:01:13;3.55;;;1.10;;
74799;SDS011;63326;45.088;7.658;2023-04-03T04:03:44;0.93;;;0.57;;
74799;SDS011;63326;45.088;7.658;2023-04-03T04:06:15;2.10;;;0.70;;
74799;SDS011;63326;45.088;7.658;2023-04-03T04:08:42;0.95;;;0.43;;
74799;SDS011;63326;45.088;7.658;2023-04-03T04:11:11;1.55;;;0.80;;
74799;SDS011;63326;45.088;7.658;2023-04-03T04:13:39;0.98;;;0.70;;
74799;SDS011;63326;45.088;7.658;2023-04-03T04:16:08;1.20;;;0.85;;
74799;SDS011;63326;45.088;7.658;2023-04-03T04:18:36;1.00;;;0.47;;
74799;SDS011;63326;45.088;7.658;2023-04-03T04:21:02;0.57;;;0.40;;
74799;SDS011;63326;45.088;7.658;2023-04-03T04:23:30;3.03;;;1.05;;
74799;SDS011;63326;45.088;7.658;2023-04-03T04:25:58;5.70;;;1.27;;
74799;SDS011;63326;45.088;7.658;2023-04-03T04:28:27;2.63;;;1.33;;
74799;SDS011;63326;45.088;7.658;2023-04-03T04:30:56;1.10;;;0.60;;
74799;SDS011;63326;45.088;7.658;2023-04-03T04:33:25;0.90;;;0.47;;
74799;SDS011;63326;45.088;7.658;2023-04-03T04:35:52;1.70;;;0.70;;
74799;SDS011;63326;45.088;7.658;2023-04-03T04:38:20;1.65;;;0.80;;
74799;SDS011;63326;45.088;7.658;2023-04-03T04:40:49;1.50;;;0.60;;
74799;SDS011;63326;45.088;7.658;2023-04-03T04:43:16;3.08;;;1.05;;
74799;SDS011;63326;45.088;7.658;2023-04-03T04:45:45;2.25;;;0.95;;
74799;SDS011;63326;45.088;7.658;2023-04-03T04:48:13;2.05;;;0.80;;
74799;SDS011;63326;45.088;7.658;2023-04-03T04:50:40;2.00;;;0.60;;
74799;SDS011;63326;45.088;7.658;2023-04-03T04:53:07;1.45;;;0.80;;
74799;SDS011;63326;45.088;7.658;2023-04-03T04:58:02;2.63;;;0.90;;
74799;SDS011;63326;45.088;7.658;2023-04-03T05:00:29;2.83;;;0.93;;
74799;SDS011;63326;45.088;7.658;2023-04-03T05:02:55;2.67;;;0.88;;
74799;SDS011;63326;45.088;7.658;2023-04-03T05:05:23;3.63;;;1.67;;
74799;SDS011;63326;45.088;7.658;2023-04-03T05:07:50;0.80;;;0.50;;
74799;SDS011;63326;45.088;7.658;2023-04-03T05:10:16;2.95;;;1.55;;
74799;SDS011;63326;45.088;7.658;2023-04-03T05:12:44;3.72;;;1.67;;
74799;SDS011;63326;45.088;7.658;2023-04-03T05:15:11;2.28;;;0.95;;
74799;SDS011;63326;45.088;7.658;2023-04-03T05:17:38;2.58;;;1.00;;
74799;SDS011;63326;45.088;7.658;2023-04-03T05:20:07;1.92;;;0.90;;
74799;SDS011;63326;45.088;7.658;2023-04-03T05:22:35;2.63;;;1.58;;
74799;SDS011;63326;45.088;7.658;2023-04-03T05:25:06;3.80;;;1.15;;
74799;SDS011;63326;45.088;7.658;2023-04-03T05:27:35;1.45;;;0.95;;
74799;SDS011;63326;45.088;7.658;2023-04-03T05:30:02;2.20;;;1.10;;
74799;SDS011;63326;45.088;7.658;2023-04-03T05:32:31;2.40;;;1.33;;
74799;SDS011;63326;45.088;7.658;2023-04-03T05:35:10;2.55;;;1.17;;
74799;SDS011;63326;45.088;7.658;2023-04-03T05:37:39;2.63;;;1.00;;
74799;SDS011;63326;45.088;7.658;2023-04-03T05:40:06;1.98;;;0.55;;
74799;SDS011;63326;45.088;7.658;2023-04-03T05:42:36;1.38;;;0.63;;
74799;SDS011;63326;45.088;7.658;2023-04-03T05:45:03;2.13;;;1.13;;
74799;SDS011;63326;45.088;7.658;2023-04-03T05:47:30;1.90;;;1.00;;
74799;SDS011;63326;45.088;7.658;2023-04-03T05:49:58;3.22;;;1.25;;
74799;SDS011;63326;45.088;7.658;2023-04-03T05:52:28;3.33;;;1.30;;
74799;SDS011;63326;45.088;7.658;2023-04-03T05:54:57;3.25;;;1.42;;
74799;SDS011;63326;45.088;7.658;2023-04-03T05:57:26;4.30;;;1.67;;
74799;SDS011;63326;45.088;7.658;2023-04-03T05:59:53;1.52;;;0.90;;
74799;SDS011;63326;45.088;7.658;2023-04-03T06:02:21;1.73;;;0.95;;
74799;SDS011;63326;45.088;7.658;2023-04-03T06:04:49;5.32;;;1.40;;
74799;SDS011;63326;45.088;7.658;2023-04-03T06:07:19;1.63;;;0.98;;
74799;SDS011;63326;45.088;7.658;2023-04-03T06:09:49;4.75;;;1.30;;
74799;SDS011;63326;45.088;7.658;2023-04-03T06:12:17;3.75;;;1.10;;
74799;SDS011;63326;45.088;7.658;2023-04-03T06:17:13;1.50;;;0.90;;
74799;SDS011;63326;45.088;7.658;2023-04-03T06:19:44;2.85;;;1.50;;
74799;SDS011;63326;45.088;7.658;2023-04-03T06:22:11;3.08;;;1.40;;
74799;SDS011;63326;45.088;7.658;2023-04-03T06:24:39;4.10;;;1.50;;
74799;SDS011;63326;45.088;7.658;2023-04-03T06:27:06;3.08;;;1.08;;
74799;SDS011;63326;45.088;7.658;2023-04-03T06:29:33;3.30;;;1.42;;
74799;SDS011;63326;45.088;7.658;2023-04-03T06:32:00;3.47;;;1.40;;
74799;SDS011;63326;45.088;7.658;2023-04-03T06:34:26;3.80;;;1.83;;
74799;SDS011;63326;45.088;7.658;2023-04-03T06:36:53;3.03;;;1.98;;
74799;SDS011;63326;45.088;7.658;2023-04-03T06:39:20;5.80;;;1.27;;
74799;SDS011;63326;45.088;7.658;2023-04-03T06:41:49;4.60;;;1.55;;
74799;SDS011;63326;45.088;7.658;2023-04-03T06:44:22;2.63;;;1.33;;
74799;SDS011;63326;45.088;7.658;2023-04-03T06:46:48;7.03;;;1.77;;
74799;SDS011;63326;45.088;7.658;2023-04-03T06:49:15;2.72;;;1.17;;
74799;SDS011;63326;45.088;7.658;2023-04-03T06:51:42;2.70;;;1.55;;
74799;SDS011;63326;45.088;7.658;2023-04-03T06:54:09;2.70;;;1.38;;
74799;SDS011;63326;45.088;7.658;2023-04-03T06:56:36;5.95;;;1.83;;
74799;SDS011;63326;45.088;7.658;2023-04-03T06:59:02;4.13;;;2.03;;
74799;SDS011;63326;45.088;7.658;2023-04-03T07:01:30;5.72;;;2.22;;
74799;SDS011;63326;45.088;7.658;2023-04-03T07:03:57;5.03;;;2.08;;
74799;SDS011;63326;45.088;7.658;2023-04-03T07:06:24;7.68;;;2.38;;
74799;SDS011;63326;45.088;7.658;2023-04-03T07:08:54;2.80;;;1.50;;
74799;SDS011;63326;45.088;7.658;2023-04-03T07:11:21;2.95;;;1.35;;
74799;SDS011;63326;45.088;7.658;2023-04-03T07:13:49;1.60;;;1.40;;
74799;SDS011;63326;45.088;7.658;2023-04-03T07:16:16;4.82;;;1.25;;
74799;SDS011;63326;45.088;7.658;2023-04-03T07:18:43;2.25;;;1.67;;
74799;SDS011;63326;45.088;7.658;2023-04-03T07:21:11;3.38;;;1.60;;
74799;SDS011;63326;45.088;7.658;2023-04-03T07:23:38;4.38;;;2.28;;
74799;SDS011;63326;45.088;7.658;2023-04-03T07:26:05;6.30;;;1.85;;
74799;SDS011;63326;45.088;7.658;2023-04-03T07:28:32;4.13;;;2.30;;
74799;SDS011;63326;45.088;7.658;2023-04-03T07:33:27;5.30;;;2.17;;
74799;SDS011;63326;45.088;7.658;2023-04-03T07:35:54;3.85;;;1.73;;
74799;SDS011;63326;45.088;7.658;2023-04-03T07:38:21;3.80;;;1.88;;
74799;SDS011;63326;45.088;7.658;2023-04-03T07:40:48;3.70;;;1.65;;
74799;SDS011;63326;45.088;7.658;2023-04-03T07:43:17;4.82;;;1.63;;
74799;SDS011;63326;45.088;7.658;2023-04-03T07:45:44;3.17;;;1.50;;
74799;SDS011;63326;45.088;7.658;2023-04-03T07:48:11;4.60;;;1.90;;
74799;SDS011;63326;45.088;7.658;2023-04-03T07:50:42;3.50;;;1.50;;
74799;SDS011;63326;45.088;7.658;2023-04-03T07:53:09;3.35;;;1.98;;
74799;SDS011;63326;45.088;7.658;2023-04-03T07:55:36;2.75;;;1.88;;
74799;SDS011;63326;45.088;7.658;2023-04-03T07:58:13;3.03;;;1.77;;
74799;SDS011;63326;45.088;7.658;2023-04-03T08:00:42;2.58;;;1.45;;
74799;SDS011;63326;45.088;7.658;2023-04-03T08:03:09;1.95;;;1.13;;
74799;SDS011;63326;45.088;7.658;2023-04-03T08:05:39;3.75;;;1.30;;
74799;SDS011;63326;45.088;7.658;2023-04-03T08:08:11;2.55;;;1.50;;
74799;SDS011;63326;45.088;7.658;2023-04-03T08:10:39;1.73;;;1.00;;
74799;SDS011;63326;45.088;7.658;2023-04-03T08:13:06;3.30;;;1.58;;
74799;SDS011;63326;45.088;7.658;2023-04-03T08:15:33;2.33;;;1.05;;
74799;SDS011;63326;45.088;7.658;2023-04-03T08:18:01;7.70;;;1.83;;
74799;SDS011;63326;45.088;7.658;2023-04-03T08:20:28;3.40;;;1.27;;
74799;SDS011;63326;45.088;7.658;2023-04-03T08:22:55;3.58;;;1.42;;
74799;SDS011;63326;45.088;7.658;2023-04-03T08:25:22;3.45;;;1.27;;
74799;SDS011;63326;45.088;7.658;2023-04-03T08:27:49;3.25;;;1.30;;
74799;SDS011;63326;45.088;7.658;2023-04-03T08:30:15;2.25;;;1.02;;
74799;SDS011;63326;45.088;7.658;2023-04-03T08:35:10;2.67;;;1.02;;
74799;SDS011;63326;45.088;7.658;2023-04-03T08:40:05;1.15;;;0.70;;
74799;SDS011;63326;45.088;7.658;2023-04-03T08:48:54;1.58;;;0.88;;
74799;SDS011;63326;45.088;7.658;2023-04-03T08:51:14;2.88;;;1.15;;
74799;SDS011;63326;45.088;7.658;2023-04-03T08:53:50;2.03;;;1.13;;
74799;SDS011;63326;45.088;7.658;2023-04-03T08:56:34;3.30;;;1.52;;
74799;SDS011;63326;45.088;7.658;2023-04-03T08:59:04;4.45;;;1.33;;
74799;SDS011;63326;45.088;7.658;2023-04-03T09:01:38;2.63;;;1.10;;
74799;SDS011;63326;45.088;7.658;2023-04-03T09:04:10;2.95;;;1.13;;
74799;SDS011;63326;45.088;7.658;2023-04-03T09:06:41;3.70;;;1.00;;
74799;SDS011;63326;45.088;7.658;2023-04-03T09:09:21;2.20;;;0.88;;
74799;SDS011;63326;45.088;7.658;2023-04-03T09:22:59;2.15;;;1.02;;
74799;SDS011;63326;45.088;7.658;2023-04-03T09:25:31;4.65;;;1.20;;
74799;SDS011;63326;45.088;7.658;2023-04-03T09:28:02;3.60;;;0.95;;
74799;SDS011;63326;45.088;7.658;2023-04-03T09:30:30;2.42;;;0.85;;
74799;SDS011;63326;45.088;7.658;2023-04-03T09:32:57;3.83;;;1.40;;
74799;SDS011;63326;45.088;7.658;2023-04-03T09:35:28;5.40;;;3.40;;
74799;SDS011;63326;45.088;7.658;2023-04-03T09:40:41;2.50;;;1.30;;
74799;SDS011;63326;45.088;7.658;2023-04-03T09:43:25;3.70;;;1.20;;
74799;SDS011;63326;45.088;7.658;2023-04-03T09:45:54;2.65;;;1.00;;
74799;SDS011;63326;45.088;7.658;2023-04-03T09:48:24;1.48;;;0.88;;
74799;SDS011;63326;45.088;7.658;2023-04-03T10:01:29;1.83;;;1.05;;
74799;SDS011;63326;45.088;7.658;2023-04-03T10:06:41;0.47;;;0.47;;
74799;SDS011;63326;45.088;7.658;2023-04-03T10:09:29;0.30;;;0.30;;
74799;SDS011;63326;45.088;7.658;2023-04-03T10:14:28;1.35;;;0.43;;
74799;SDS011;63326;45.088;7.658;2023-04-03T10:19:43;2.55;;;0.68;;
74799;SDS011;63326;45.088;7.658;2023-04-03T10:22:48;2.67;;;0.93;;
74799;SDS011;63326;45.088;7.658;2023-04-03T10:28:03;1.40;;;1.25;;
74799;SDS011;63326;45.088;7.658;2023-04-03T10:36:12;3.28;;;1.27;;
74799;SDS011;63326;45.088;7.658;2023-04-03T10:46:28;2.80;;;1.50;;
74799;SDS011;63326;45.088;7.658;2023-04-03T10:51:45;2.45;;;0.93;;
74799;SDS011;63326;45.088;7.658;2023-04-03T10:54:20;3.70;;;0.95;;
74799;SDS011;63326;45.088;7.658;2023-04-03T10:57:02;2.65;;;1.27;;
74799;SDS011;63326;45.088;7.658;2023-04-03T11:02:19;1.50;;;0.82;;
74799;SDS011;63326;45.088;7.658;2023-04-03T11:05:13;3.15;;;0.90;;
74799;SDS011;63326;45.088;7.658;2023-04-03T11:08:02;1.73;;;0.85;;
74799;SDS011;63326;45.088;7.658;2023-04-03T11:10:38;0.95;;;0.60;;
74799;SDS011;63326;45.088;7.658;2023-04-03T11:13:17;2.17;;;1.02;;
74799;SDS011;63326;45.088;7.658;2023-04-03T11:15:49;1.08;;;0.60;;
74799;SDS011;63326;45.088;7.658;2023-04-03T11:18:21;1.15;;;0.68;;
74799;SDS011;63326;45.088;7.658;2023-04-03T11:20:57;1.67;;;1.10;;
74799;SDS011;63326;45.088;7.658;2023-04-03T11:23:34;2.58;;;0.63;;
74799;SDS011;63326;45.088;7.658;2023-04-03T11:26:15;1.08;;;0.98;;
74799;SDS011;63326;45.088;7.658;2023-04-03T11:28:45;1.10;;;0.98;;
74799;SDS011;63326;45.088;7.658;2023-04-03T11:31:22;0.95;;;0.80;;
74799;SDS011;63326;45.088;7.658;2023-04-03T11:37:04;0.75;;;0.50;;
74799;SDS011;63326;45.088;7.658;2023-04-03T11:39:54;1.40;;;0.68;;
74799;SDS011;63326;45.088;7.658;2023-04-03T11:42:37;0.82;;;0.60;;
74799;SDS011;63326;45.088;7.658;2023-04-03T11:47:54;0.77;;;0.50;;
74799;SDS011;63326;45.088;7.658;2023-04-03T11:53:45;0.75;;;0.47;;
74799;SDS011;63326;45.088;7.658;2023-04-03T12:04:20;1.65;;;0.98;;
74799;SDS011;63326;45.088;7.658;2023-04-03T12:06:51;0.82;;;0.50;;
74799;SDS011;63326;45.088;7.658;2023-04-03T12:12:00;2.22;;;1.30;;
74799;SDS011;63326;45.088;7.658;2023-04-03T12:14:48;1.92;;;0.60;;
74799;SDS011;63326;45.088;7.658;2023-04-03T12:17:26;1.38;;;1.00;;
74799;SDS011;63326;45.088;7.658;2023-04-03T12:19:53;2.60;;;0.77;;
74799;SDS011;63326;45.088;7.658;2023-04-03T12:22:20;2.38;;;0.68;;
74799;SDS011;63326;45.088;7.658;2023-04-03T12:24:49;1.27;;;0.63;;
74799;SDS011;63326;45.088;7.658;2023-04-03T12:30:22;1.33;;;0.82;;
74799;SDS011;63326;45.088;7.658;2023-04-03T12:38:36;1.30;;;0.85;;
74799;SDS011;63326;45.088;7.658;2023-04-03T12:41:43;1.48;;;0.45;;
74799;SDS011;63326;45.088;7.658;2023-04-03T12:44:26;0.85;;;0.60;;
74799;SDS011;63326;45.088;7.658;2023-04-03T12:47:08;1.50;;;1.40;;
74799;SDS011;63326;45.088;7.658;2023-04-03T12:49:48;0.68;;;0.60;;
74799;SDS011;63326;45.088;7.658;2023-04-03T12:52:32;0.57;;;0.57;;
74799;SDS011;63326;45.088;7.658;2023-04-03T12:55:24;0.80;;;0.57;;
74799;SDS011;63326;45.088;7.658;2023-04-03T12:57:51;2.17;;;0.73;;
74799;SDS011;63326;45.088;7.658;2023-04-03T13:02:54;1.77;;;0.57;;
74799;SDS011;63326;45.088;7.658;2023-04-03T13:05:21;1.77;;;0.60;;
74799;SDS011;63326;45.088;7.658;2023-04-03T13:07:54;1.65;;;0.90;;
74799;SDS011;63326;45.088;7.658;2023-04-03T13:10:25;0.52;;;0.52;;
74799;SDS011;63326;45.088;7.658;2023-04-03T13:15:25;0.50;;;0.50;;
74799;SDS011;63326;45.088;7.658;2023-04-03T13:17:53;0.38;;;0.30;;
74799;SDS011;63326;45.088;7.658;2023-04-03T13:20:29;0.40;;;0.38;;
74799;SDS011;63326;45.088;7.658;2023-04-03T13:25:35;0.55;;;0.55;;
74799;SDS011;63326;45.088;7.658;2023-04-03T13:28:09;1.25;;;0.63;;
74799;SDS011;63326;45.088;7.658;2023-04-03T13:30:40;1.42;;;0.70;;
74799;SDS011;63326;45.088;7.658;2023-04-03T13:33:26;0.50;;;0.50;;
74799;SDS011;63326;45.088;7.658;2023-04-03T13:35:57;1.23;;;1.13;;
74799;SDS011;63326;45.088;7.658;2023-04-03T13:38:33;1.05;;;1.05;;
74799;SDS011;63326;45.088;7.658;2023-04-03T13:41:04;1.48;;;1.38;;
74799;SDS011;63326;45.088;7.658;2023-04-03T13:43:48;1.58;;;1.10;;
74799;SDS011;63326;45.088;7.658;2023-04-03T13:48:43;2.80;;;1.98;;
74799;SDS011;63326;45.088;7.658;2023-04-03T13:53:45;1.27;;;1.17;;
74799;SDS011;63326;45.088;7.658;2023-04-03T13:56:30;2.25;;;2.03;;
74799;SDS011;63326;45.088;7.658;2023-04-03T13:59:02;2.17;;;1.98;;
74799;SDS011;63326;45.088;7.658;2023-04-03T14:04:19;1.40;;;1.30;;
74799;SDS011;63326;45.088;7.658;2023-04-03T14:06:52;2.08;;;1.58;;
74799;SDS011;63326;45.088;7.658;2023-04-03T14:09:19;1.90;;;1.65;;
74799;SDS011;63326;45.088;7.658;2023-04-03T14:11:48;1.10;;;0.90;;
74799;SDS011;63326;45.088;7.658;2023-04-03T14:14:23;1.52;;;0.82;;
74799;SDS011;63326;45.088;7.658;2023-04-03T14:16:57;1.05;;;0.65;;
74799;SDS011;63326;45.088;7.658;2023-04-03T14:19:28;0.75;;;0.57;;
74799;SDS011;63326;45.088;7.658;2023-04-03T14:21:57;1.00;;;0.63;;
74799;SDS011;63326;45.088;7.658;2023-04-03T14:24:24;1.55;;;0.77;;
74799;SDS011;63326;45.088;7.658;2023-04-03T14:29:19;1.58;;;1.05;;
74799;SDS011;63326;45.088;7.658;2023-04-03T14:31:48;1.67;;;0.88;;
74799;SDS011;63326;45.088;7.658;2023-04-03T14:34:25;1.67;;;1.00;;
74799;SDS011;63326;45.088;7.658;2023-04-03T14:36:52;2.92;;;1.10;;
74799;SDS011;63326;45.088;7.658;2023-04-03T14:39:19;1.70;;;0.88;;
74799;SDS011;63326;45.088;7.658;2023-04-03T14:41:46;2.35;;;0.85;;
74799;SDS011;63326;45.088;7.658;2023-04-03T14:44:13;1.40;;;0.90;;
74799;SDS011;63326;45.088;7.658;2023-04-03T14:49:14;2.00;;;0.98;;
74799;SDS011;63326;45.088;7.658;2023-04-03T14:51:44;2.95;;;1.27;;
74799;SDS011;63326;45.088;7.658;2023-04-03T14:54:14;1.77;;;0.70;;
74799;SDS011;63326;45.088;7.658;2023-04-03T14:56:43;2.50;;;1.10;;
74799;SDS011;63326;45.088;7.658;2023-04-03T14:59:11;3.42;;;1.08;;
74799;SDS011;63326;45.088;7.658;2023-04-03T15:01:39;2.58;;;1.08;;
74799;SDS011;63326;45.088;7.658;2023-04-03T15:04:16;2.65;;;1.27;;
74799;SDS011;63326;45.088;7.658;2023-04-03T15:06:45;5.00;;;1.27;;
74799;SDS011;63326;45.088;7.658;2023-04-03T15:09:20;2.72;;;1.08;;
74799;SDS011;63326;45.088;7.658;2023-04-03T15:11:51;2.42;;;1.13;;
74799;SDS011;63326;45.088;7.658;2023-04-03T15:14:19;4.40;;;1.60;;
74799;SDS011;63326;45.088;7.658;2023-04-03T15:17:03;2.58;;;1.30;;
74799;SDS011;63326;45.088;7.658;2023-04-03T15:19:37;2.58;;;1.33;;
74799;SDS011;63326;45.088;7.658;2023-04-03T15:22:05;3.95;;;1.60;;
74799;SDS011;63326;45.088;7.658;2023-04-03T15:24:32;2.65;;;1.42;;
74799;SDS011;63326;45.088;7.658;2023-04-03T15:26:59;4.50;;;1.65;;
74799;SDS011;63326;45.088;7.658;2023-04-03T15:29:27;3.55;;;1.45;;
74799;SDS011;63326;45.088;7.658;2023-04-03T15:31:54;3.50;;;1.63;;
74799;SDS011;63326;45.088;7.658;2023-04-03T15:34:21;2.70;;;1.30;;
74799;SDS011;63326;45.088;7.658;2023-04-03T15:36:49;4.18;;;1.90;;
74799;SDS011;63326;45.088;7.658;2023-04-03T15:39:19;3.20;;;1.55;;
74799;SDS011;63326;45.088;7.658;2023-04-03T15:41:46;4.40;;;2.20;;
74799;SDS011;63326;45.088;7.658;2023-04-03T15:44:13;2.95;;;1.52;;
74799;SDS011;63326;45.088;7.658;2023-04-03T15:46:46;5.03;;;1.80;;
74799;SDS011;63326;45.088;7.658;2023-04-03T15:49:18;3.25;;;1.73;;
74799;SDS011;63326;45.088;7.658;2023-04-03T15:51:46;2.85;;;1.52;;
74799;SDS011;63326;45.088;7.658;2023-04-03T15:54:13;2.78;;;1.38;;
74799;SDS011;63326;45.088;7.658;2023-04-03T15:59:07;3.42;;;1.67;;
74799;SDS011;63326;45.088;7.658;2023-04-03T16:01:33;1.80;;;1.20;;
74799;SDS011;63326;45.088;7.658;2023-04-03T16:04:02;2.15;;;0.82;;
74799;SDS011;63326;45.088;7.658;2023-04-03T16:06:28;2.10;;;0.68;;
74799;SDS011;63326;45.088;7.658;2023-04-03T16:08:56;2.45;;;0.70;;
74799;SDS011;63326;45.088;7.658;2023-04-03T16:13:52;1.00;;;0.50;;
74799;SDS011;63326;45.088;7.658;2023-04-03T16:16:20;1.38;;;0.57;;
74799;SDS011;63326;45.088;7.658;2023-04-03T16:18:47;3.20;;;0.40;;
74799;SDS011;63326;45.088;7.658;2023-04-03T16:21:14;0.52;;;0.28;;
74799;SDS011;63326;45.088;7.658;2023-04-03T16:23:42;2.38;;;1.00;;
74799;SDS011;63326;45.088;7.658;2023-04-03T16:26:10;3.13;;;1.20;;
74799;SDS011;63326;45.088;7.658;2023-04-03T16:28:37;2.05;;;0.93;;
74799;SDS011;63326;45.088;7.658;2023-04-03T16:31:04;1.83;;;0.60;;
74799;SDS011;63326;45.088;7.658;2023-04-03T16:33:32;1.75;;;0.55;;
74799;SDS011;63326;45.088;7.658;2023-04-03T16:35:59;2.03;;;1.08;;
74799;SDS011;63326;45.088;7.658;2023-04-03T16:38:26;2.42;;;0.77;;
74799;SDS011;63326;45.088;7.658;2023-04-03T16:40:52;3.03;;;0.40;;
74799;SDS011;63326;45.088;7.658;2023-04-03T16:43:23;1.67;;;0.70;;
74799;SDS011;63326;45.088;7.658;2023-04-03T16:45:49;0.43;;;0.22;;
74799;SDS011;63326;45.088;7.658;2023-04-03T16:48:16;1.17;;;0.50;;
74799;SDS011;63326;45.088;7.658;2023-04-03T16:50:47;1.92;;;0.60;;
74799;SDS011;63326;45.088;7.658;2023-04-03T16:53:23;1.55;;;0.57;;
74799;SDS011;63326;45.088;7.658;2023-04-03T16:55:50;0.65;;;0.40;;
74799;SDS011;63326;45.088;7.658;2023-04-03T16:58:18;1.85;;;0.82;;
74799;SDS011;63326;45.088;7.658;2023-04-03T17:00:47;1.25;;;0.40;;
74799;SDS011;63326;45.088;7.658;2023-04-03T17:03:14;1.75;;;0.82;;
74799;SDS011;63326;45.088;7.658;2023-04-03T17:05:41;1.17;;;0.40;;
74799;SDS011;63326;45.088;7.658;2023-04-03T17:08:09;1.42;;;0.68;;
74799;SDS011;63326;45.088;7.658;2023-04-03T17:10:36;0.95;;;0.43;;
74799;SDS011;63326;45.088;7.658;2023-04-03T17:13:03;1.67;;;0.80;;
74799;SDS011;63326;45.088;7.658;2023-04-03T17:15:30;1.45;;;0.50;;
74799;SDS011;63326;45.088;7.658;2023-04-03T17:17:56;1.10;;;0.40;;